Time;durP1;ratioP1;P1;durP2;ratioP2;P2;SDS_P1;SDS_P2;PMS_P1;PMS_P2;Temp;Humidity;BMP_temperature;BMP_pressure;BME280_temperature;BME280_humidity;BME280_pressure;Samples;Min_cycle;Max_cycle;Signal;HPM_P1;HPM_P2
2021/04/11 00:00:44;;;;;;;5.40;1.90;;;13.70;55.50;;;;;;5055541;28;20029;-92
2021/04/11 00:03:21;;;;;;;3.55;1.92;;;13.70;55.60;;;;;;5046406;28;20032;-92
2021/04/11 00:05:48;;;;;;;4.18;2.08;;;13.70;55.80;;;;;;5052818;28;20050;-92
2021/04/11 00:08:15;;;;;;;4.22;2.10;;;13.70;55.40;;;;;;5055046;28;20063;-92
2021/04/11 00:10:45;;;;;;;3.40;2.13;;;13.70;55.30;;;;;;5055447;28;20036;-92
2021/04/11 00:13:15;;;;;;;4.35;2.28;;;13.70;55.30;;;;;;5055552;28;20032;-93
2021/04/11 00:15:41;;;;;;;7.13;1.95;;;13.60;55.20;;;;;;5054691;28;20020;-92
2021/04/11 00:18:06;;;;;;;4.35;2.30;;;13.60;55.10;;;;;;5055954;28;20398;-92
2021/04/11 00:20:32;;;;;;;5.68;2.33;;;13.60;55.00;;;;;;5055152;28;20528;-92
2021/04/11 00:22:58;;;;;;;6.60;2.10;;;13.60;55.10;;;;;;5055321;28;20502;-93
2021/04/11 00:25:30;;;;;;;5.03;2.05;;;13.60;55.10;;;;;;5055241;28;20506;-92
2021/04/11 00:27:56;;;;;;;;;;;13.50;55.00;;;;;;5055621;28;20035;-92
2021/04/11 00:30:23;;;;;;;6.88;2.15;;;13.50;54.90;;;;;;5053386;28;19912;-92
2021/04/11 00:32:49;;;;;;;3.53;2.10;;;13.50;55.20;;;;;;5055142;28;20021;-92
2021/04/11 00:35:16;;;;;;;4.22;2.20;;;13.50;55.10;;;;;;5054730;28;20058;-92
2021/04/11 00:37:42;;;;;;;4.63;2.47;;;13.50;55.10;;;;;;5055535;28;20051;-92
2021/04/11 00:40:21;;;;;;;3.70;2.08;;;13.50;55.10;;;;;;5054853;28;20028;-92
2021/04/11 00:43:01;;;;;;;5.75;2.42;;;13.40;55.00;;;;;;5055388;28;20020;-92
2021/04/11 00:45:45;;;;;;;2.97;2.22;;;13.40;54.90;;;;;;5053883;28;20074;-92
2021/04/11 00:48:12;;;;;;;4.03;2.05;;;13.40;55.10;;;;;;5051531;28;20028;-92
2021/04/11 00:50:38;;;;;;;3.25;2.20;;;13.30;55.00;;;;;;5055907;28;20033;-91
2021/04/11 00:53:05;;;;;;;3.28;2.25;;;13.30;55.00;;;;;;5055106;28;20038;-93
2021/04/11 00:55:32;;;;;;;5.28;1.77;;;13.30;55.20;;;;;;5054860;28;20078;-93
2021/04/11 00:57:58;;;;;;;5.32;2.40;;;13.30;55.10;;;;;;5055238;28;20082;-93
2021/04/11 01:00:27;;;;;;;5.85;2.08;;;13.30;55.10;;;;;;5054888;28;20020;-93
2021/04/11 01:02:54;;;;;;;3.58;2.05;;;13.30;55.20;;;;;;5047645;28;20037;-92
2021/04/11 01:05:28;;;;;;;3.78;1.95;;;13.30;55.30;;;;;;5053247;28;20078;-93
2021/04/11 01:07:54;;;;;;;5.88;2.20;;;13.30;55.20;;;;;;5055034;28;20116;-93
2021/04/11 01:10:25;;;;;;;5.50;2.17;;;13.30;55.30;;;;;;5054808;28;20036;-92
2021/04/11 01:12:52;;;;;;;6.28;2.20;;;13.30;55.40;;;;;;5055029;28;20032;-91
2021/04/11 01:15:32;;;;;;;3.30;1.95;;;13.30;55.30;;;;;;5054174;28;20104;-92
2021/04/11 01:17:58;;;;;;;4.18;2.00;;;13.30;55.40;;;;;;5053988;28;20032;-92
2021/04/11 01:20:26;;;;;;;3.35;2.25;;;13.30;55.40;;;;;;5054834;28;20089;-91
2021/04/11 01:23:17;;;;;;;5.80;2.47;;;13.30;55.30;;;;;;5054548;28;20108;-91
2021/04/11 01:25:43;;;;;;;5.10;2.15;;;13.30;55.30;;;;;;5054078;28;20028;-92
2021/04/11 01:28:14;;;;;;;4.50;2.25;;;13.20;55.20;;;;;;5054176;28;20048;-92
2021/04/11 01:30:42;;;;;;;4.05;2.38;;;13.20;55.50;;;;;;5053157;28;20028;-92
2021/04/11 01:33:13;;;;;;;3.20;2.20;;;13.20;55.60;;;;;;5050989;28;20397;-92
2021/04/11 01:35:39;;;;;;;3.00;2.20;;;13.20;55.70;;;;;;5053948;28;20028;-92
2021/04/11 01:38:06;;;;;;;3.90;2.38;;;13.10;55.60;;;;;;5056150;28;20027;-92
2021/04/11 01:40:40;;;;;;;3.13;2.30;;;13.10;55.70;;;;;;5058743;28;20318;-92
2021/04/11 01:43:06;;;;;;;3.60;2.20;;;13.00;55.70;;;;;;5057256;28;20021;-91
2021/04/11 01:45:35;;;;;;;3.45;2.00;;;13.00;55.80;;;;;;5057312;28;20083;-93
2021/04/11 01:48:01;;;;;;;4.35;2.28;;;13.00;55.90;;;;;;5058372;28;20028;-91
2021/04/11 01:50:27;;;;;;;7.05;2.20;;;12.90;55.70;;;;;;5058330;28;20116;-91
2021/04/11 01:52:53;;;;;;;4.72;2.58;;;12.90;55.80;;;;;;5059464;28;20494;-91
2021/04/11 01:55:20;;;;;;;2.47;2.15;;;12.80;55.90;;;;;;5059433;28;20025;-92
2021/04/11 01:57:52;;;;;;;3.83;1.95;;;12.70;55.90;;;;;;5059325;28;20028;-90
2021/04/11 02:00:42;;;;;;;6.40;2.08;;;12.60;56.20;;;;;;5058210;28;20067;-92
2021/04/11 02:03:14;;;;;;;3.42;2.00;;;12.70;56.10;;;;;;5056784;28;20036;-92
2021/04/11 02:05:42;;;;;;;3.38;2.30;;;12.70;56.20;;;;;;5055415;28;20387;-92
2021/04/11 02:08:10;;;;;;;2.40;2.00;;;12.70;56.20;;;;;;5057163;28;20027;-91
2021/04/11 02:10:39;;;;;;;2.65;2.15;;;12.70;56.00;;;;;;5057241;28;20115;-92
2021/04/11 02:13:07;;;;;;;6.07;1.98;;;12.70;56.10;;;;;;5054721;28;20025;-91
2021/04/11 02:15:38;;;;;;;3.72;1.70;;;12.60;55.90;;;;;;5055308;28;20056;-91
2021/04/11 02:18:04;;;;;;;3.00;1.87;;;12.60;55.80;;;;;;5057336;28;20551;-92
2021/04/11 02:20:31;;;;;;;4.55;2.00;;;12.60;55.90;;;;;;5056873;28;20283;-92
2021/04/11 02:22:57;;;;;;;5.45;1.75;;;12.60;56.40;;;;;;5057484;28;20029;-92
2021/04/11 02:25:26;;;;;;;2.97;1.80;;;12.60;56.00;;;;;;5057169;28;20035;-92
2021/04/11 02:27:54;;;;;;;3.72;1.60;;;12.60;56.50;;;;;;5056853;28;20043;-92
2021/04/11 02:30:21;;;;;;;2.70;1.75;;;12.60;55.80;;;;;;5056733;28;20024;-91
2021/04/11 02:32:48;;;;;;;3.60;1.70;;;12.60;55.70;;;;;;5056173;28;20491;-91
2021/04/11 02:35:17;;;;;;;2.45;1.50;;;12.60;55.80;;;;;;5054724;28;20406;-90
2021/04/11 02:37:46;;;;;;;3.15;1.67;;;12.70;55.80;;;;;;5047803;28;20028;-92
2021/04/11 02:40:19;;;;;;;2.65;1.83;;;12.60;55.80;;;;;;5056374;28;20035;-92
2021/04/11 02:42:45;;;;;;;2.60;1.45;;;12.70;55.70;;;;;;5056247;28;20024;-92
2021/04/11 02:45:22;;;;;;;2.67;1.42;;;12.70;56.10;;;;;;5056736;28;20100;-92
2021/04/11 02:47:48;;;;;;;2.65;1.63;;;12.60;55.40;;;;;;5052475;28;20025;-92
2021/04/11 02:50:15;;;;;;;2.22;1.30;;;12.60;55.50;;;;;;5055620;28;20027;-92
2021/04/11 02:52:51;;;;;;;3.03;1.65;;;12.60;55.60;;;;;;5056978;28;20486;-92
2021/04/11 02:55:18;;;;;;;3.30;1.67;;;12.70;55.80;;;;;;5042325;28;20024;-92
2021/04/11 02:57:44;;;;;;;2.20;1.30;;;12.70;55.60;;;;;;5056340;28;20036;-92
2021/04/11 03:00:21;;;;;;;4.95;1.88;;;12.70;55.60;;;;;;5056469;28;20032;-93
2021/04/11 03:02:46;;;;;;;5.35;1.98;;;12.60;55.70;;;;;;5048980;28;20390;-92
2021/04/11 03:05:15;;;;;;;4.25;2.30;;;12.60;55.70;;;;;;5055674;28;20024;-92
2021/04/11 03:07:47;;;;;;;3.47;2.17;;;12.60;55.70;;;;;;5056366;28;20359;-92
2021/04/11 03:10:28;;;;;;;3.65;1.92;;;12.50;55.90;;;;;;5067889;22;20046;-89
2021/04/11 03:12:55;;;;;;;2.92;2.30;;;12.50;56.10;;;;;;5024373;28;20476;-88
2021/04/11 03:15:23;;;;;;;4.53;2.17;;;12.50;56.20;;;;;;5028367;28;20023;-89
2021/04/11 03:17:51;;;;;;;4.03;1.90;;;12.40;56.10;;;;;;5033124;28;20017;-87
2021/04/11 03:20:28;;;;;;;3.47;2.10;;;12.40;56.30;;;;;;5034389;28;20025;-88
2021/04/11 03:22:55;;;;;;;4.00;2.10;;;12.40;56.50;;;;;;5032943;28;20025;-89
2021/04/11 03:25:21;;;;;;;3.15;2.13;;;12.30;56.70;;;;;;5032169;28;20029;-87
2021/04/11 03:28:08;;;;;;;4.85;2.63;;;12.40;57.00;;;;;;5031816;28;20032;-88
2021/04/11 03:30:43;;;;;;;5.25;2.30;;;12.40;57.60;;;;;;5028874;28;20030;-89
2021/04/11 03:33:16;;;;;;;4.22;2.63;;;12.40;57.30;;;;;;5032909;28;20502;-88
2021/04/11 03:35:44;;;;;;;4.10;2.22;;;12.50;57.20;;;;;;5032830;28;20034;-89
2021/04/11 03:38:12;;;;;;;4.88;2.30;;;12.50;57.10;;;;;;5037398;28;20079;-88
2021/04/11 03:40:41;;;;;;;3.08;2.25;;;12.50;57.20;;;;;;5041650;28;20032;-88
2021/04/11 03:43:12;;;;;;;4.97;2.58;;;12.50;57.30;;;;;;5041835;28;20519;-88
2021/04/11 03:45:38;;;;;;;2.22;1.88;;;12.50;57.40;;;;;;5040299;28;20026;-88
2021/04/11 03:48:30;;;;;;;4.15;2.40;;;12.50;57.40;;;;;;5042071;28;20097;-88
2021/04/11 03:51:05;;;;;;;6.50;2.60;;;12.50;57.40;;;;;;5056465;28;20060;-87
2021/04/11 03:53:42;;;;;;;4.13;2.03;;;12.50;57.40;;;;;;5043127;28;20105;-88
2021/04/11 03:56:12;;;;;;;3.78;2.10;;;12.50;57.50;;;;;;5049459;28;20030;-88
2021/04/11 04:02:00;;;;;;;6.05;1.83;;;12.30;57.60;;;;;;5044953;28;20040;-89
2021/04/11 04:04:27;;;;;;;2.60;1.77;;;12.20;58.20;;;;;;5044073;28;20446;-88
2021/04/11 04:07:04;;;;;;;3.15;1.75;;;12.20;57.90;;;;;;5032697;28;20117;-87
2021/04/11 04:09:30;;;;;;;2.55;2.00;;;12.30;58.30;;;;;;5022599;28;20034;-88
2021/04/11 04:12:03;;;;;;;2.00;1.70;;;12.30;58.00;;;;;;5016244;28;20037;-89
2021/04/11 04:15:06;;;;;;;3.20;1.92;;;12.30;58.00;;;;;;5032158;28;20049;-88
2021/04/11 04:17:56;;;;;;;4.03;1.52;;;12.20;58.10;;;;;;5022289;28;20030;-90
2021/04/11 04:20:51;;;;;;;1.90;1.73;;;12.30;58.10;;;;;;5030543;28;20013;-88
2021/04/11 04:23:38;;;;;;;4.18;1.80;;;12.20;58.00;;;;;;5007437;28;20034;-88
2021/04/11 04:26:15;;;;;;;1.92;1.30;;;12.20;58.30;;;;;;5023972;28;20025;-89
2021/04/11 04:28:53;;;;;;;2.08;1.60;;;12.20;58.60;;;;;;5032158;28;20037;-88
2021/04/11 04:31:24;;;;;;;2.50;1.50;;;12.20;58.60;;;;;;5032419;28;20064;-88
2021/04/11 04:34:07;;;;;;;1.92;1.60;;;12.20;58.40;;;;;;5031349;28;20028;-88
2021/04/11 04:36:43;;;;;;;2.70;1.38;;;12.20;58.40;;;;;;5032358;28;20028;-89
2021/04/11 04:39:31;;;;;;;5.88;1.52;;;12.20;58.60;;;;;;5013061;28;20037;-88
2021/04/11 04:42:18;;;;;;;1.63;1.45;;;12.30;58.70;;;;;;5032913;28;20033;-88
2021/04/11 04:44:46;;;;;;;2.15;1.33;;;12.30;58.70;;;;;;5031155;28;20048;-88
2021/04/11 04:50:49;;;;;;;1.20;1.10;;;12.30;58.50;;;;;;5033699;28;20502;-89
2021/04/11 04:53:55;;;;;;;1.73;1.30;;;12.30;58.60;;;;;;5034820;28;20044;-87
2021/04/11 04:57:08;;;;;;;1.42;1.33;;;12.30;58.60;;;;;;5044935;28;20025;-89
2021/04/11 05:00:23;;;;;;;1.20;1.10;;;12.20;58.50;;;;;;5022760;28;20022;-89
2021/04/11 05:03:35;;;;;;;1.42;1.25;;;12.20;58.70;;;;;;5040262;28;20122;-88
2021/04/11 05:06:34;;;;;;;;;;;12.20;59.00;;;;;;5040397;28;20028;-89
2021/04/11 05:09:22;;;;;;;5.65;1.30;;;12.20;58.50;;;;;;5031108;28;19971;-89
2021/04/11 05:11:57;;;;;;;2.28;1.48;;;12.20;58.90;;;;;;5035086;28;20032;-88
2021/04/11 05:14:29;;;;;;;4.22;1.30;;;12.20;59.20;;;;;;5037185;28;20112;-88
2021/04/11 05:17:22;;;;;;;1.80;1.40;;;12.20;59.20;;;;;;5035873;28;20065;-89
2021/04/11 05:19:53;;;;;;;1.98;1.10;;;12.20;59.10;;;;;;5037454;28;20097;-88
2021/04/11 05:22:32;;;;;;;2.15;1.45;;;12.20;59.20;;;;;;5037200;28;20029;-88
2021/04/11 05:25:02;;;;;;;1.58;1.48;;;12.20;59.40;;;;;;5035567;28;20037;-88
2021/04/11 05:27:41;;;;;;;3.80;1.70;;;12.20;59.40;;;;;;5035380;28;20502;-88
2021/04/11 05:30:07;;;;;;;1.30;1.20;;;12.20;59.50;;;;;;5035117;28;20825;-87
2021/04/11 05:32:33;;;;;;;2.65;1.70;;;12.30;59.50;;;;;;5035526;28;20055;-88
2021/04/11 05:34:59;;;;;;;3.22;1.70;;;12.30;59.50;;;;;;5036524;28;20034;-88
2021/04/11 05:37:44;;;;;;;3.67;1.90;;;12.20;59.60;;;;;;5035621;28;20029;-88
2021/04/11 05:40:36;;;;;;;2.30;2.03;;;12.20;59.80;;;;;;5035212;28;20030;-88
2021/04/11 05:43:24;;;;;;;4.07;2.10;;;12.20;59.90;;;;;;5037030;28;20029;-88
2021/04/11 05:46:02;;;;;;;4.43;2.30;;;12.20;59.90;;;;;;5035772;28;20045;-88
2021/04/11 05:48:49;;;;;;;2.80;2.05;;;12.20;60.10;;;;;;5035624;28;20532;-87
2021/04/11 05:51:41;;;;;;;4.38;2.20;;;12.20;60.20;;;;;;5035682;28;20503;-88
2021/04/11 05:54:14;;;;;;;2.63;2.13;;;12.20;60.10;;;;;;5036058;28;20133;-88
2021/04/11 05:56:50;;;;;;;8.27;5.38;;;12.20;60.20;;;;;;5028952;28;20484;-87
2021/04/11 05:59:21;;;;;;;5.35;2.80;;;12.10;60.20;;;;;;5035284;28;20040;-88
2021/04/11 06:01:56;;;;;;;2.88;2.25;;;12.00;60.30;;;;;;5035424;28;20040;-88
2021/04/11 06:04:45;;;;;;;5.80;2.53;;;12.10;60.50;;;;;;5036792;28;20025;-86
2021/04/11 06:07:23;;;;;;;3.17;2.17;;;12.10;60.50;;;;;;5035408;28;20109;-88
2021/04/11 06:09:56;;;;;;;6.47;2.38;;;12.10;60.60;;;;;;5030949;28;20359;-88
2021/04/11 06:12:37;;;;;;;4.47;2.72;;;12.10;60.80;;;;;;5035269;28;20395;-88
2021/04/11 06:15:12;;;;;;;4.35;2.65;;;12.10;60.80;;;;;;5032741;28;20063;-87
2021/04/11 06:17:42;;;;;;;7.10;3.30;;;12.10;60.70;;;;;;5035355;28;20101;-88
2021/04/11 06:20:08;;;;;;;3.67;2.72;;;12.10;60.90;;;;;;5034981;28;20064;-88
2021/04/11 06:22:47;;;;;;;6.10;2.53;;;12.10;60.80;;;;;;5051382;28;20029;-88
2021/04/11 06:25:32;;;;;;;4.55;2.55;;;12.10;61.00;;;;;;5035218;28;20021;-88
2021/04/11 06:28:14;;;;;;;2.78;2.30;;;12.10;61.00;;;;;;5033876;28;20018;-87
2021/04/11 06:31:15;;;;;;;3.75;2.63;;;12.10;61.10;;;;;;5027492;28;20443;-88
2021/04/11 06:33:45;;;;;;;4.20;2.80;;;12.10;61.10;;;;;;5000117;28;20537;-88
2021/04/11 06:36:23;;;;;;;5.07;2.47;;;12.10;61.20;;;;;;5034569;28;20034;-87
2021/04/11 06:38:57;;;;;;;4.82;2.78;;;12.10;61.30;;;;;;5035785;28;20044;-88
2021/04/11 06:41:32;;;;;;;3.83;2.60;;;12.10;61.40;;;;;;5034211;28;20049;-88
2021/04/11 06:44:36;;;;;;;5.45;2.83;;;12.20;61.90;;;;;;5033836;28;20029;-88
2021/04/11 06:50:45;;;;;;;4.60;4.00;;;12.40;61.40;;;;;;5031643;28;20099;-88
2021/04/11 06:53:31;;;;;;;7.40;5.07;;;12.40;61.50;;;;;;5033355;28;20064;-88
2021/04/11 06:56:26;;;;;;;4.40;3.08;;;12.50;61.20;;;;;;5035852;28;20093;-89
2021/04/11 06:59:18;;;;;;;5.40;3.78;;;12.70;61.20;;;;;;5024606;28;20033;-88
2021/04/11 07:02:23;;;;;;;3.03;2.00;;;12.90;60.90;;;;;;5028092;28;20022;-88
2021/04/11 07:05:27;;;;;;;3.17;1.95;;;13.00;60.70;;;;;;5021583;28;20037;-88
2021/04/11 07:08:25;;;;;;;4.30;1.58;;;13.20;60.60;;;;;;5015180;28;20076;-89
2021/04/11 07:11:29;;;;;;;1.92;1.63;;;13.50;60.50;;;;;;5027048;28;20036;-89
2021/04/11 07:14:28;;;;;;;3.22;1.98;;;13.50;59.90;;;;;;5029509;28;20029;-88
2021/04/11 07:20:35;;;;;;;2.13;1.67;;;13.80;59.60;;;;;;5031911;28;20036;-89
2021/04/11 07:23:35;;;;;;;3.05;1.40;;;13.90;59.30;;;;;;5032254;28;20036;-89
2021/04/11 07:26:37;;;;;;;2.92;1.45;;;14.00;59.30;;;;;;5032015;28;20440;-87
2021/04/11 07:29:03;;;;;;;2.33;1.38;;;14.00;59.10;;;;;;5016047;28;20068;-88
2021/04/11 07:31:44;;;;;;;3.97;1.25;;;14.20;59.00;;;;;;5034603;28;20100;-88
2021/04/11 07:34:28;;;;;;;8.00;1.80;;;14.40;58.80;;;;;;5033263;28;20029;-87
2021/04/11 07:37:06;;;;;;;3.00;1.40;;;14.50;58.40;;;;;;5037935;28;20040;-90
2021/04/11 07:39:47;;;;;;;1.30;1.20;;;14.70;58.30;;;;;;5036841;28;20033;-90
2021/04/11 07:42:50;;;;;;;2.53;1.50;;;14.90;57.60;;;;;;5044449;28;20037;-91
2021/04/11 07:45:42;;;;;;;1.20;1.08;;;15.10;57.80;;;;;;5032670;28;20098;-89
2021/04/11 07:48:37;;;;;;;2.28;1.13;;;15.20;57.40;;;;;;5034360;28;20120;-89
2021/04/11 07:51:36;;;;;;;1.23;1.10;;;15.30;56.90;;;;;;5033613;28;20026;-90
2021/04/11 07:54:43;;;;;;;3.75;1.42;;;15.30;57.40;;;;;;5022123;28;20026;-89
2021/04/11 07:57:12;;;;;;;3.05;1.30;;;15.40;56.70;;;;;;4980283;28;20076;-89
2021/04/11 07:59:58;;;;;;;3.60;1.17;;;15.40;56.40;;;;;;5024333;28;20037;-87
2021/04/11 08:02:48;;;;;;;1.10;1.00;;;15.60;56.20;;;;;;5034325;28;20032;-88
2021/04/11 08:05:26;;;;;;;1.70;1.00;;;15.60;56.10;;;;;;5037746;28;20496;-89
2021/04/11 08:08:04;;;;;;;4.25;1.35;;;15.70;56.20;;;;;;5035786;28;20060;-89
2021/04/11 08:10:52;;;;;;;4.50;1.15;;;15.80;55.70;;;;;;5035196;28;20326;-88
2021/04/11 08:13:50;;;;;;;1.45;1.05;;;15.80;55.20;;;;;;5028054;28;20025;-89
2021/04/11 08:16:48;;;;;;;2.13;1.00;;;15.80;55.40;;;;;;5032723;28;20149;-89
2021/04/11 08:19:39;;;;;;;4.07;1.27;;;15.80;54.80;;;;;;5034850;28;20033;-88
2021/04/11 08:22:33;;;;;;;1.20;1.10;;;15.80;54.70;;;;;;5030906;28;20021;-89
2021/04/11 08:25:29;;;;;;;1.10;1.00;;;15.80;54.60;;;;;;5033303;28;20029;-89
2021/04/11 08:28:16;;;;;;;3.25;1.20;;;15.80;54.50;;;;;;5032914;28;20025;-89
2021/04/11 08:31:06;;;;;;;1.90;0.93;;;15.80;54.80;;;;;;5032075;28;20048;-90
2021/04/11 08:33:51;;;;;;;2.60;1.27;;;15.80;54.40;;;;;;5030941;28;20005;-89
2021/04/11 08:36:19;;;;;;;3.83;1.15;;;15.90;54.60;;;;;;5034260;28;20061;-88
2021/04/11 08:38:57;;;;;;;3.15;1.20;;;15.90;54.60;;;;;;5047693;28;20018;-88
2021/04/11 08:41:29;;;;;;;5.00;1.33;;;16.10;54.60;;;;;;5041124;28;20025;-88
2021/04/11 08:44:14;;;;;;;2.88;1.38;;;16.10;54.20;;;;;;5027280;28;20084;-90
2021/04/11 08:47:07;;;;;;;1.35;1.20;;;16.10;54.40;;;;;;5030516;28;20503;-88
2021/04/11 08:49:43;;;;;;;;;;;16.20;54.40;;;;;;5033666;28;20037;-88
2021/04/11 08:52:27;;;;;;;2.17;1.35;;;16.20;54.50;;;;;;5030033;28;20298;-86
2021/04/11 08:55:30;;;;;;;3.05;1.50;;;16.30;54.30;;;;;;5029347;28;20510;-87
2021/04/11 08:58:08;;;;;;;2.83;1.05;;;16.30;54.40;;;;;;5036009;28;20120;-88
2021/04/11 09:00:48;;;;;;;2.22;1.17;;;16.60;53.50;;;;;;5035008;28;20025;-87
2021/04/11 09:03:23;;;;;;;2.10;0.80;;;17.50;51.30;;;;;;5035266;28;20479;-87
2021/04/11 09:06:18;;;;;;;0.90;0.90;;;18.70;49.20;;;;;;5053185;28;20098;-89
2021/04/11 09:09:18;;;;;;;0.77;0.77;;;20.00;47.30;;;;;;5036926;28;20116;-88
2021/04/11 09:11:48;;;;;;;1.27;0.85;;;19.80;45.10;;;;;;5037824;28;20030;-87
2021/04/11 09:14:24;;;;;;;4.35;1.30;;;19.50;45.90;;;;;;5035823;28;20292;-88
2021/04/11 09:17:16;;;;;;;1.60;0.98;;;19.20;46.90;;;;;;5114980;23;20435;-68
2021/04/11 09:20:01;;;;;;;3.38;3.08;;;19.60;46.80;;;;;;5045233;28;20057;-67
2021/04/11 09:22:57;;;;;;;2.75;1.30;;;19.90;46.00;;;;;;5054948;28;20036;-67
2021/04/11 09:25:30;;;;;;;6.10;1.20;;;21.10;45.30;;;;;;5036300;28;20384;-66
2021/04/11 09:28:34;;;;;;;4.40;1.10;;;21.60;43.10;;;;;;5054279;28;20024;-65
2021/04/11 09:31:26;;;;;;;4.35;2.28;;;21.50;42.50;;;;;;5001564;28;20129;-66
2021/04/11 09:34:20;;;;;;;1.83;0.98;;;21.60;43.00;;;;;;5054524;28;20119;-68
2021/04/11 09:36:59;;;;;;;3.97;0.73;;;22.40;41.70;;;;;;5054510;28;20060;-66
2021/04/11 09:39:43;;;;;;;4.32;2.03;;;22.90;40.90;;;;;;5072062;28;20032;-68
2021/04/11 09:42:17;;;;;;;1.35;0.75;;;23.40;40.60;;;;;;5055908;28;20612;-67
2021/04/11 09:44:58;;;;;;;1.38;0.80;;;23.30;40.60;;;;;;5055034;28;20119;-68
2021/04/11 09:47:50;;;;;;;1.73;0.63;;;23.30;40.60;;;;;;5047698;28;20020;-67
2021/04/11 09:50:27;;;;;;;3.33;0.90;;;23.20;40.50;;;;;;5048547;28;20028;-69
2021/04/11 09:53:37;;;;;;;1.33;0.82;;;22.70;40.80;;;;;;5068934;28;20104;-67
2021/04/11 09:56:27;;;;;;;1.85;0.70;;;22.50;41.30;;;;;;5040128;28;20399;-68
2021/04/11 09:59:18;;;;;;;2.10;1.05;;;22.40;42.10;;;;;;5055233;28;20123;-69
2021/04/11 10:02:21;;;;;;;1.80;0.80;;;22.20;41.50;;;;;;5052826;28;20086;-68
2021/04/11 10:04:57;;;;;;;2.97;0.90;;;22.00;41.80;;;;;;5023739;28;20033;-68
2021/04/11 10:07:38;;;;;;;5.15;1.30;;;21.80;42.20;;;;;;5035849;28;20021;-68
2021/04/11 10:10:25;;;;;;;3.83;1.23;;;21.40;42.80;;;;;;5044623;28;20027;-68
2021/04/11 10:12:51;;;;;;;0.98;0.60;;;21.00;43.40;;;;;;5055349;28;20496;-68
2021/04/11 10:15:30;;;;;;;2.40;0.52;;;20.60;43.20;;;;;;5053654;28;20032;-67
2021/04/11 10:18:28;;;;;;;2.15;0.70;;;20.20;42.80;;;;;;5055264;28;20032;-68
2021/04/11 10:20:56;;;;;;;0.80;0.60;;;19.80;44.10;;;;;;5051176;28;20107;-68
2021/04/11 10:23:33;;;;;;;3.38;0.77;;;19.70;44.20;;;;;;5052365;28;20082;-69
2021/04/11 10:26:26;;;;;;;1.17;0.50;;;19.70;44.10;;;;;;5054134;28;20107;-67
2021/04/11 10:29:00;;;;;;;2.92;0.75;;;19.80;44.00;;;;;;5044313;28;20107;-68
2021/04/11 10:31:37;;;;;;;1.52;0.70;;;19.90;44.20;;;;;;5053209;28;20030;-69
2021/04/11 10:34:14;;;;;;;1.63;0.80;;;20.00;44.00;;;;;;5054729;28;20108;-68
2021/04/11 10:37:22;;;;;;;1.05;0.57;;;20.00;43.40;;;;;;5038037;28;20036;-69
2021/04/11 10:40:00;;;;;;;5.03;0.88;;;20.00;44.20;;;;;;5038512;28;20075;-68
2021/04/11 10:42:47;;;;;;;2.85;0.60;;;20.10;44.40;;;;;;5049346;28;20024;-68
2021/04/11 10:45:22;;;;;;;1.80;0.60;;;20.40;44.70;;;;;;5054433;28;20016;-69
2021/04/11 10:48:06;;;;;;;1.65;0.60;;;20.60;44.00;;;;;;5053001;28;20020;-68
2021/04/11 10:51:06;;;;;;;1.27;0.68;;;20.70;44.60;;;;;;5052371;28;20048;-68
2021/04/11 10:53:35;;;;;;;1.15;0.75;;;21.00;44.40;;;;;;5053565;28;20036;-68
2021/04/11 10:56:25;;;;;;;1.27;0.68;;;21.00;43.70;;;;;;5053790;28;20032;-68
2021/04/11 10:59:21;;;;;;;1.05;0.65;;;21.00;43.10;;;;;;5055005;28;20029;-68
2021/04/11 11:02:05;;;;;;;1.52;0.65;;;20.90;42.30;;;;;;5049758;28;20041;-68
2021/04/11 11:05:08;;;;;;;0.70;0.70;;;20.70;42.70;;;;;;5041917;28;20040;-68
2021/04/11 11:07:57;;;;;;;0.80;0.73;;;20.70;42.60;;;;;;5058101;28;20053;-68
2021/04/11 11:10:53;;;;;;;3.72;0.70;;;20.70;43.30;;;;;;5031684;28;20107;-68
2021/04/11 11:13:52;;;;;;;2.72;0.60;;;20.60;42.90;;;;;;5053911;28;20024;-68
2021/04/11 11:16:50;;;;;;;0.70;0.60;;;20.80;42.70;;;;;;5053144;28;20033;-69
2021/04/11 11:19:47;;;;;;;4.43;0.90;;;21.10;43.00;;;;;;5052693;28;20488;-68
2021/04/11 11:22:39;;;;;;;2.25;0.47;;;21.20;41.60;;;;;;5036071;28;20028;-68
2021/04/11 11:25:26;;;;;;;1.13;0.70;;;21.20;41.00;;;;;;5053670;28;20496;-68
2021/04/11 11:28:23;;;;;;;5.07;0.80;;;21.10;40.20;;;;;;5071492;28;20024;-67
2021/04/11 11:30:49;;;;;;;1.00;0.60;;;20.90;40.70;;;;;;5053306;28;20475;-68
2021/04/11 11:33:23;;;;;;;1.33;1.00;;;20.80;40.80;;;;;;5051049;28;20036;-67
2021/04/11 11:35:58;;;;;;;3.47;0.90;;;20.90;41.70;;;;;;5052942;28;20488;-68
2021/04/11 11:38:34;;;;;;;1.50;0.82;;;20.90;41.10;;;;;;5053527;28;20028;-67
2021/04/11 11:41:30;;;;;;;3.75;0.80;;;21.10;41.40;;;;;;5054186;28;20074;-68
2021/04/11 11:44:13;;;;;;;0.95;0.65;;;21.10;41.10;;;;;;5052839;28;20117;-68
2021/04/11 11:47:27;;;;;;;2.38;0.80;;;21.20;40.00;;;;;;5052518;28;20108;-68
2021/04/11 11:50:04;;;;;;;1.70;0.82;;;21.20;39.70;;;;;;5035115;28;20037;-68
2021/04/11 11:52:51;;;;;;;1.27;0.60;;;21.00;39.50;;;;;;5053461;28;20108;-68
2021/04/11 11:55:23;;;;;;;2.28;0.80;;;20.90;40.20;;;;;;5052676;28;20040;-70
2021/04/11 11:58:13;;;;;;;2.38;0.90;;;20.80;40.00;;;;;;5053940;28;20055;-69
2021/04/11 12:00:46;;;;;;;2.60;0.70;;;20.70;39.60;;;;;;5052880;28;20556;-68
2021/04/11 12:03:29;;;;;;;5.18;0.80;;;20.60;39.50;;;;;;5052633;28;20461;-68
2021/04/11 12:06:10;;;;;;;1.60;0.70;;;20.40;39.80;;;;;;5052575;28;20028;-68
2021/04/11 12:08:53;;;;;;;0.98;0.88;;;20.40;40.50;;;;;;5053726;28;20024;-66
2021/04/11 12:11:42;;;;;;;5.97;0.80;;;20.50;39.60;;;;;;5045149;28;20057;-67
2021/04/11 12:14:24;;;;;;;2.53;0.88;;;20.50;39.30;;;;;;5032932;28;20856;-66
2021/04/11 12:17:22;;;;;;;1.65;0.70;;;20.40;39.40;;;;;;5046644;28;20041;-67
2021/04/11 12:19:59;;;;;;;1.65;0.98;;;20.30;39.70;;;;;;5045795;28;20029;-66
2021/04/11 12:22:32;;;;;;;1.10;1.00;;;20.20;40.10;;;;;;5053298;28;20496;-67
2021/04/11 12:25:03;;;;;;;1.58;0.75;;;20.20;40.10;;;;;;5052771;28;20025;-68
2021/04/11 12:27:32;;;;;;;2.22;0.60;;;20.10;40.10;;;;;;5051853;28;20070;-66
2021/04/11 12:30:00;;;;;;;1.92;0.90;;;20.10;40.80;;;;;;5053399;28;20031;-68
2021/04/11 12:32:52;;;;;;;2.05;0.70;;;20.20;41.00;;;;;;5047695;28;20396;-68
2021/04/11 12:35:28;;;;;;;3.45;0.80;;;20.20;40.30;;;;;;5041907;28;20040;-68
2021/04/11 12:38:16;;;;;;;1.60;0.50;;;20.20;40.80;;;;;;5052704;28;20041;-66
2021/04/11 12:40:49;;;;;;;1.38;0.90;;;20.10;40.60;;;;;;5052971;28;20029;-67
2021/04/11 12:43:44;;;;;;;2.05;0.70;;;20.20;40.90;;;;;;5051590;28;20024;-67
2021/04/11 12:46:25;;;;;;;5.15;0.70;;;20.20;41.30;;;;;;5029051;28;20071;-67
2021/04/11 12:49:01;;;;;;;2.47;0.80;;;20.30;41.20;;;;;;5053064;28;20229;-67
2021/04/11 12:51:53;;;;;;;2.85;0.73;;;20.20;40.90;;;;;;5043302;28;20108;-66
2021/04/11 12:54:33;;;;;;;4.57;0.77;;;20.20;41.50;;;;;;5049899;28;20024;-67
2021/04/11 12:57:11;;;;;;;2.03;0.93;;;20.20;41.50;;;;;;5052251;28;20052;-67
2021/04/11 13:00:05;;;;;;;2.45;0.80;;;20.50;41.50;;;;;;5052361;28;20032;-66
2021/04/11 13:02:52;;;;;;;1.85;1.00;;;20.80;41.90;;;;;;5049768;28;20024;-67
2021/04/11 13:05:44;;;;;;;2.47;0.90;;;21.10;41.60;;;;;;5044157;28;20021;-67
2021/04/11 13:08:14;;;;;;;1.50;1.40;;;21.20;41.00;;;;;;5052221;28;20036;-66
2021/04/11 13:11:03;;;;;;;4.07;0.90;;;21.40;41.00;;;;;;5049593;28;20113;-67
2021/04/11 13:14:09;;;;;;;0.80;0.80;;;21.30;40.80;;;;;;5052904;28;20024;-66
2021/04/11 13:16:56;;;;;;;1.52;0.82;;;21.50;41.10;;;;;;5051570;28;20056;-66
2021/04/11 13:19:26;;;;;;;0.75;0.70;;;21.70;40.50;;;;;;5052601;28;20038;-66
2021/04/11 13:22:13;;;;;;;0.98;0.73;;;21.90;40.00;;;;;;5051373;28;20025;-66
2021/04/11 13:24:44;;;;;;;1.30;0.77;;;22.00;40.00;;;;;;5051147;28;20052;-67
2021/04/11 13:27:35;;;;;;;1.80;0.77;;;22.30;40.10;;;;;;5050824;28;20397;-67
2021/04/11 13:30:16;;;;;;;0.70;0.68;;;22.30;39.80;;;;;;5047882;28;20097;-66
2021/04/11 13:32:45;;;;;;;1.33;0.88;;;22.30;39.60;;;;;;5047592;28;20028;-67
2021/04/11 13:35:26;;;;;;;3.30;0.90;;;22.30;39.50;;;;;;5043573;28;20029;-67
2021/04/11 13:37:59;;;;;;;1.92;0.70;;;22.10;38.70;;;;;;5064127;28;20827;-67
2021/04/11 13:40:30;;;;;;;5.03;1.00;;;21.90;38.40;;;;;;5047549;28;20121;-66
2021/04/11 13:43:23;;;;;;;2.83;1.05;;;21.60;38.80;;;;;;5053800;28;20033;-68
2021/04/11 13:45:52;;;;;;;3.67;0.80;;;21.40;39.30;;;;;;5044347;28;20021;-66
2021/04/11 13:48:30;;;;;;;2.22;0.82;;;21.20;40.00;;;;;;5054410;28;20553;-66
2021/04/11 13:51:10;;;;;;;1.42;1.10;;;21.20;40.30;;;;;;5050842;28;20024;-66
2021/04/11 13:53:54;;;;;;;1.45;1.10;;;21.10;40.30;;;;;;5055037;28;20029;-65
2021/04/11 13:56:51;;;;;;;1.05;0.88;;;21.00;40.70;;;;;;5059347;28;20183;-66
2021/04/11 13:59:40;;;;;;;2.80;0.90;;;20.90;40.20;;;;;;5053231;28;20024;-66
2021/04/11 14:02:21;;;;;;;2.83;0.98;;;20.80;40.50;;;;;;5053858;28;20108;-66
2021/04/11 14:05:00;;;;;;;1.27;0.87;;;20.70;40.50;;;;;;5054399;28;20028;-66
2021/04/11 14:07:55;;;;;;;1.58;0.70;;;20.60;40.50;;;;;;5042920;28;20393;-65